createdAt,value
2022-10-07T18:54:56.225Z,14.29
2022-10-07T19:00:01.000Z,14.20
2022-10-07T19:05:05.108Z,14.09
2022-10-07T19:10:15.852Z,14.03
2022-10-07T19:15:19.408Z,13.95
2022-10-07T19:20:22.122Z,13.87
2022-10-07T19:25:32.031Z,13.79
2022-10-07T19:41:18.470Z,13.59
2022-10-07T19:46:23.352Z,13.45
2022-10-07T19:51:28.402Z,13.36
2022-10-07T19:56:37.735Z,13.29
2022-10-07T20:12:22.801Z,13.18
2022-10-07T20:17:25.626Z,13.03
2022-10-07T20:22:28.371Z,12.95
2022-10-07T20:27:37.021Z,12.89
2022-10-07T20:32:39.993Z,12.84
2022-10-07T20:37:42.890Z,12.77
2022-10-07T20:48:08.790Z,12.71
2022-10-07T20:53:13.755Z,12.57
2022-10-07T20:58:16.636Z,12.51
2022-10-07T21:03:24.842Z,12.45
2022-10-07T21:08:27.629Z,12.41
2022-10-07T21:13:31.360Z,12.35
2022-10-07T21:24:00.468Z,12.30
2022-10-07T21:34:24.134Z,12.20
2022-10-07T21:39:27.273Z,12.08
2022-10-07T21:44:30.037Z,12.02
2022-10-07T21:54:58.792Z,12.00
2022-10-07T22:00:02.308Z,11.88
2022-10-07T22:05:06.117Z,11.83
2022-10-07T22:10:17.617Z,11.80
2022-10-07T22:15:20.424Z,11.78
2022-10-07T22:20:24.090Z,11.75
2022-10-07T22:30:52.743Z,11.79
2022-10-07T22:35:55.690Z,11.68
2022-10-07T22:46:22.875Z,11.69
2022-10-07T23:02:17.643Z,11.52
2022-10-07T23:07:20.433Z,11.49
2022-10-07T23:12:24.087Z,11.45
2022-10-07T23:17:32.604Z,11.44
2022-10-07T23:27:57.308Z,11.47
2022-10-07T23:33:00.113Z,11.37
2022-10-07T23:38:02.896Z,11.34
2022-10-07T23:43:13.060Z,11.30
2022-10-07T23:48:17.197Z,11.27
2022-10-07T23:58:41.966Z,11.27
